createdAt,value
2022-10-31T00:01:27.985Z,8.20
2022-10-31T00:05:50.645Z,6.68
2022-10-31T00:10:12.024Z,7.75
2022-10-31T00:14:33.504Z,8.00
2022-10-31T00:18:58.363Z,5.38
2022-10-31T00:23:19.715Z,5.95
2022-10-31T00:27:41.077Z,6.95
2022-10-31T00:32:02.649Z,5.95
2022-10-31T00:36:24.036Z,7.35
2022-10-31T00:40:45.398Z,5.90
2022-10-31T00:45:07.183Z,7.50
2022-10-31T00:49:28.556Z,6.05
2022-10-31T00:53:50.849Z,10.90
2022-10-31T01:02:40.047Z,7.40
2022-10-31T01:07:02.683Z,9.60
2022-10-31T01:11:24.462Z,8.23
2022-10-31T01:15:45.828Z,5.43
2022-10-31T01:20:09.178Z,8.48
2022-10-31T01:24:30.555Z,5.97
2022-10-31T01:28:56.018Z,7.18
2022-10-31T01:33:17.390Z,6.95
2022-10-31T01:37:38.813Z,6.50
2022-10-31T01:42:00.215Z,7.35
2022-10-31T01:46:26.501Z,7.38
2022-10-31T01:50:51.269Z,5.93
2022-10-31T01:55:27.722Z,5.90
2022-10-31T01:59:56.100Z,6.00
2022-10-31T02:04:19.762Z,6.97
2022-10-31T02:08:44.386Z,7.95
2022-10-31T02:13:08.678Z,6.70
2022-10-31T02:17:37.787Z,6.80
2022-10-31T02:22:10.655Z,6.03
2022-10-31T02:26:46.109Z,7.55
2022-10-31T02:31:11.794Z,7.70
2022-10-31T02:35:47.405Z,5.80
2022-10-31T02:39:57.953Z,5.78
2022-10-31T02:44:19.703Z,6.07
2022-10-31T02:48:28.180Z,4.85
2022-10-31T02:52:32.477Z,4.47
2022-10-31T02:56:37.346Z,4.88
2022-10-31T03:00:51.241Z,7.07
2022-10-31T03:05:31.157Z,4.70
2022-10-31T03:09:38.457Z,4.53
2022-10-31T03:13:48.550Z,4.35
2022-10-31T03:18:04.425Z,4.65
2022-10-31T03:22:16.287Z,4.22
2022-10-31T03:26:21.797Z,4.35
2022-10-31T03:30:23.424Z,4.85
2022-10-31T03:38:36.926Z,4.85
2022-10-31T03:42:43.316Z,4.68
2022-10-31T03:46:45.352Z,3.65
2022-10-31T03:51:15.850Z,3.92
2022-10-31T03:55:25.044Z,4.63
2022-10-31T03:59:40.995Z,3.72
2022-10-31T04:03:43.683Z,4.00
2022-10-31T04:07:50.831Z,5.75
2022-10-31T04:11:56.332Z,3.95
2022-10-31T04:16:16.958Z,4.22
2022-10-31T04:20:19.512Z,6.15
2022-10-31T04:24:21.132Z,4.38
2022-10-31T04:28:23.837Z,3.92
2022-10-31T04:32:26.562Z,4.28
2022-10-31T04:36:29.702Z,4.07
2022-10-31T04:40:33.088Z,3.97
2022-10-31T04:44:52.848Z,3.95
2022-10-31T04:48:54.455Z,3.95
2022-10-31T04:52:56.020Z,3.70
2022-10-31T04:57:01.703Z,4.10
2022-10-31T05:01:04.164Z,4.70
2022-10-31T05:05:07.094Z,6.05
2022-10-31T05:09:10.251Z,4.00
2022-10-31T05:13:13.355Z,4.28
2022-10-31T05:17:33.664Z,5.30
2022-10-31T05:22:10.086Z,4.07
2022-10-31T05:26:12.785Z,4.38
2022-10-31T05:30:17.627Z,5.72
2022-10-31T05:34:19.080Z,3.35
2022-10-31T05:38:20.526Z,5.28
2022-10-31T05:42:22.868Z,4.03
2022-10-31T05:46:24.576Z,4.97
2022-10-31T05:51:01.435Z,6.20
2022-10-31T05:55:03.695Z,8.07
2022-10-31T05:59:05.225Z,3.72
2022-10-31T06:07:19.799Z,5.10
2022-10-31T06:11:21.298Z,3.67
2022-10-31T06:15:37.909Z,14.50
2022-10-31T06:19:42.290Z,5.93
2022-10-31T06:23:45.804Z,8.80
2022-10-31T06:32:46.684Z,8.95
2022-10-31T06:37:09.879Z,4.38
2022-10-31T06:41:33.283Z,6.40
2022-10-31T06:45:55.050Z,8.45
2022-10-31T06:50:20.472Z,6.80
2022-10-31T06:54:41.990Z,8.57
2022-10-31T06:59:03.922Z,7.47
2022-10-31T07:03:43.840Z,5.07
2022-10-31T07:08:09.445Z,6.70
2022-10-31T07:12:31.476Z,10.25
2022-10-31T07:16:54.050Z,9.32
2022-10-31T07:21:21.532Z,8.13
2022-10-31T07:25:43.060Z,11.98
2022-10-31T07:30:12.399Z,16.52
2022-10-31T07:34:33.803Z,14.25
2022-10-31T07:38:59.874Z,11.63
2022-10-31T07:43:01.791Z,15.45
2022-10-31T07:47:23.318Z,14.00
2022-10-31T07:51:56.636Z,16.58
2022-10-31T08:00:18.133Z,24.73
2022-10-31T08:04:23.707Z,20.15
2022-10-31T08:08:43.957Z,17.20
2022-10-31T08:12:45.561Z,26.27
2022-10-31T08:16:47.618Z,16.05
2022-10-31T08:20:49.129Z,21.30
2022-10-31T08:24:50.599Z,33.60
2022-10-31T08:28:52.477Z,18.60
2022-10-31T08:33:17.480Z,18.13
2022-10-31T08:37:58.760Z,19.50
2022-10-31T08:42:02.018Z,23.40
2022-10-31T08:46:04.162Z,31.42
2022-10-31T08:50:05.988Z,22.27
2022-10-31T08:54:07.600Z,27.80
2022-10-31T08:58:14.870Z,19.95
2022-10-31T09:02:22.406Z,32.03
2022-10-31T09:06:26.232Z,31.60
2022-10-31T09:10:29.974Z,27.50
2022-10-31T09:14:31.901Z,23.50
2022-10-31T09:18:53.570Z,19.40
2022-10-31T09:22:59.958Z,40.05
2022-10-31T09:27:01.800Z,19.20
2022-10-31T09:31:03.316Z,19.70
2022-10-31T09:35:25.783Z,22.23
2022-10-31T09:39:30.058Z,26.67
2022-10-31T09:44:00.515Z,19.95
2022-10-31T09:48:36.641Z,19.88
2022-10-31T09:53:11.543Z,17.95
2022-10-31T09:57:16.476Z,21.30
2022-10-31T10:01:49.327Z,21.20
2022-10-31T10:06:20.502Z,15.13
2022-10-31T10:10:52.643Z,22.58
2022-10-31T10:15:37.481Z,21.23
2022-10-31T10:20:11.921Z,21.50
2022-10-31T10:24:45.775Z,17.20
2022-10-31T10:28:55.719Z,14.30
2022-10-31T10:33:12.106Z,15.82
2022-10-31T10:37:29.977Z,19.63
2022-10-31T10:41:34.645Z,9.68
2022-10-31T10:45:56.660Z,22.88
2022-10-31T10:49:59.448Z,23.58
2022-10-31T10:54:14.710Z,18.33
2022-10-31T10:58:16.236Z,13.95
2022-10-31T11:02:25.998Z,16.92
2022-10-31T11:06:27.619Z,16.92
2022-10-31T11:10:29.181Z,19.25
2022-10-31T11:14:30.665Z,24.10
2022-10-31T11:18:35.613Z,22.33
2022-10-31T11:22:37.060Z,17.45
2022-10-31T11:26:40.303Z,18.02
2022-10-31T11:30:47.992Z,20.55
2022-10-31T11:34:56.432Z,16.15
2022-10-31T11:39:00.733Z,16.65
2022-10-31T11:43:02.180Z,12.30
2022-10-31T11:47:06.412Z,17.27
2022-10-31T11:51:09.333Z,14.73
2022-10-31T11:55:17.726Z,13.88
2022-10-31T11:59:30.607Z,7.65
2022-10-31T12:03:34.573Z,6.88
2022-10-31T12:07:36.101Z,7.85
2022-10-31T12:11:51.004Z,20.10
2022-10-31T12:16:01.696Z,11.27
2022-10-31T12:20:09.532Z,9.75
2022-10-31T12:24:36.279Z,14.55
2022-10-31T12:28:46.473Z,8.00
2022-10-31T12:33:22.270Z,20.70
2022-10-31T12:37:39.046Z,19.60
2022-10-31T12:41:48.269Z,10.65
2022-10-31T12:45:55.477Z,14.68
2022-10-31T12:50:18.215Z,19.15
2022-10-31T12:54:19.582Z,6.55
2022-10-31T12:58:35.963Z,9.35
2022-10-31T13:02:40.367Z,10.88
2022-10-31T13:06:49.791Z,5.90
2022-10-31T13:11:11.699Z,20.33
2022-10-31T13:15:20.989Z,7.32
2022-10-31T13:19:37.697Z,6.80
2022-10-31T13:23:56.318Z,13.15
2022-10-31T13:28:05.877Z,10.45
2022-10-31T13:32:08.231Z,6.35
2022-10-31T13:36:25.770Z,7.00
2022-10-31T13:40:46.078Z,6.63
2022-10-31T13:44:47.682Z,8.35
2022-10-31T13:48:49.174Z,9.50
2022-10-31T13:52:50.993Z,8.93
2022-10-31T13:56:53.502Z,5.43
2022-10-31T14:01:16.289Z,8.68
2022-10-31T14:05:27.795Z,6.20
2022-10-31T14:09:33.247Z,7.45
2022-10-31T14:13:44.167Z,12.65
2022-10-31T14:18:07.603Z,6.47
2022-10-31T14:22:22.429Z,3.85
2022-10-31T14:26:23.973Z,16.85
2022-10-31T14:30:27.538Z,10.98
2022-10-31T14:34:35.434Z,6.63
2022-10-31T14:39:03.472Z,6.63
2022-10-31T14:43:18.784Z,13.63
2022-10-31T14:47:46.131Z,5.03
2022-10-31T14:51:49.518Z,15.70
2022-10-31T14:55:54.258Z,8.73
2022-10-31T15:00:19.060Z,12.18
2022-10-31T15:04:25.518Z,15.75
2022-10-31T15:08:39.028Z,6.38
2022-10-31T15:12:40.457Z,10.27
2022-10-31T15:16:44.105Z,11.90
2022-10-31T15:20:46.914Z,14.27
2022-10-31T15:24:49.646Z,18.08
2022-10-31T15:29:13.304Z,16.20
2022-10-31T15:33:21.951Z,15.00
2022-10-31T15:37:26.376Z,11.25
2022-10-31T15:41:30.726Z,5.47
2022-10-31T15:45:32.620Z,18.83
2022-10-31T15:49:43.054Z,15.95
2022-10-31T15:53:50.746Z,21.38
2022-10-31T15:57:55.788Z,9.00
2022-10-31T16:02:02.820Z,12.63
2022-10-31T16:06:06.323Z,11.07
2022-10-31T16:10:24.670Z,9.48
2022-10-31T16:14:33.960Z,14.25
2022-10-31T16:18:37.799Z,12.70
2022-10-31T16:22:39.987Z,12.13
2022-10-31T16:26:41.773Z,18.00
2022-10-31T16:30:48.519Z,16.70
2022-10-31T16:35:10.533Z,19.15
2022-10-31T16:39:12.310Z,21.45
2022-10-31T16:43:17.804Z,15.10
2022-10-31T16:47:21.171Z,18.10
2022-10-31T16:51:24.778Z,14.05
2022-10-31T16:55:26.226Z,17.80
2022-10-31T16:59:28.081Z,12.38
2022-10-31T17:03:29.617Z,14.00
2022-10-31T17:07:31.027Z,13.60
2022-10-31T17:11:32.706Z,20.05
2022-10-31T17:15:44.344Z,11.50
2022-10-31T17:19:45.827Z,10.38
2022-10-31T17:23:47.260Z,5.78
2022-10-31T17:27:50.062Z,11.18
2022-10-31T17:31:51.510Z,7.90
2022-10-31T17:35:53.054Z,12.18
2022-10-31T17:39:54.453Z,7.05
2022-10-31T17:43:57.093Z,8.40
2022-10-31T17:47:58.719Z,10.57
2022-10-31T17:52:00.144Z,11.40
2022-10-31T17:56:05.740Z,9.30
2022-10-31T18:00:11.303Z,10.25
2022-10-31T18:04:12.921Z,13.65
2022-10-31T18:08:14.358Z,6.85
2022-10-31T18:12:16.406Z,6.13
2022-10-31T18:16:19.189Z,6.63
2022-10-31T18:20:20.642Z,10.75
2022-10-31T18:24:22.165Z,14.18
2022-10-31T18:28:23.713Z,10.50
2022-10-31T18:32:25.236Z,9.52
2022-10-31T18:36:26.736Z,8.70
2022-10-31T18:40:28.171Z,7.88
2022-10-31T18:44:30.463Z,12.55
2022-10-31T18:48:31.972Z,5.40
2022-10-31T18:52:33.420Z,8.77
2022-10-31T18:56:34.855Z,9.40
2022-10-31T19:00:37.215Z,12.13
2022-10-31T19:04:38.611Z,9.75
2022-10-31T19:08:40.223Z,9.82
2022-10-31T19:12:41.668Z,6.40
2022-10-31T19:16:43.189Z,7.70
2022-10-31T19:20:44.589Z,7.95
2022-10-31T19:24:45.986Z,14.57
2022-10-31T19:28:47.702Z,11.75
2022-10-31T19:32:49.243Z,7.20
2022-10-31T19:36:50.698Z,14.52
2022-10-31T19:41:07.105Z,9.10
2022-10-31T19:45:08.888Z,9.07
2022-10-31T19:49:11.755Z,5.88
2022-10-31T19:53:13.223Z,12.65
2022-10-31T19:57:14.600Z,7.90
2022-10-31T20:01:18.542Z,11.40
2022-10-31T20:05:20.053Z,12.02
2022-10-31T20:09:21.798Z,13.80
2022-10-31T20:13:24.373Z,9.80
2022-10-31T20:17:25.853Z,8.63
2022-10-31T20:21:29.583Z,11.90
2022-10-31T20:25:33.102Z,13.52
2022-10-31T20:29:34.606Z,16.50
2022-10-31T20:33:36.791Z,10.43
2022-10-31T20:37:38.523Z,11.25
2022-10-31T20:41:40.016Z,18.92
2022-10-31T20:45:41.543Z,15.95
2022-10-31T20:49:43.132Z,20.52
2022-10-31T20:53:45.050Z,6.80
2022-10-31T20:57:46.802Z,14.70
2022-10-31T21:01:48.441Z,17.88
2022-10-31T21:05:55.042Z,21.02
2022-10-31T21:09:56.427Z,20.83
2022-10-31T21:13:59.477Z,17.60
2022-10-31T21:18:00.977Z,11.55
2022-10-31T21:22:03.391Z,12.45
2022-10-31T21:26:12.190Z,12.68
2022-10-31T21:30:13.635Z,24.73
2022-10-31T21:34:15.158Z,21.58
2022-10-31T21:38:16.662Z,15.80
2022-10-31T21:42:21.354Z,18.58
2022-10-31T21:46:26.099Z,19.75
2022-10-31T21:50:27.944Z,20.73
2022-10-31T21:54:30.202Z,16.67
2022-10-31T21:58:34.707Z,20.33
2022-10-31T22:02:39.128Z,18.90
2022-10-31T22:06:40.637Z,20.70
2022-10-31T22:10:42.034Z,19.63
2022-10-31T22:18:54.632Z,15.02
2022-10-31T22:22:56.023Z,21.40
2022-10-31T22:26:57.429Z,18.88
2022-10-31T22:30:59.116Z,13.90
2022-10-31T22:35:00.646Z,20.98
2022-10-31T22:39:03.201Z,16.13
2022-10-31T22:43:04.761Z,16.92
2022-10-31T22:47:06.231Z,25.58
2022-10-31T22:51:27.966Z,12.25
2022-10-31T22:55:29.374Z,14.75
2022-10-31T22:59:30.830Z,16.27
2022-10-31T23:03:32.224Z,12.88
2022-10-31T23:07:33.660Z,8.85
2022-10-31T23:11:38.716Z,13.00
2022-10-31T23:15:40.111Z,14.23
2022-10-31T23:19:41.531Z,14.90
2022-10-31T23:23:42.934Z,21.58
2022-10-31T23:27:44.354Z,11.90
2022-10-31T23:31:47.293Z,12.18
2022-10-31T23:35:48.753Z,9.70
2022-10-31T23:39:50.542Z,12.65
2022-10-31T23:43:51.952Z,11.90
2022-10-31T23:47:53.368Z,9.40
2022-10-31T23:51:56.508Z,13.52
2022-10-31T23:55:57.917Z,15.55
2022-10-31T23:59:59.318Z,8.85
